createdAt,value
2019-03-01T00:01:48.251Z,100716.30
2019-03-01T00:07:57.175Z,100705.48
2019-03-01T00:13:51.005Z,100706.17
2019-03-01T00:19:54.549Z,100697.30
2019-03-01T00:25:33.060Z,100691.43
2019-03-01T00:31:06.996Z,100681.69
2019-03-01T00:37:10.227Z,100672.88
2019-03-01T00:43:20.529Z,100665.72
2019-03-01T00:48:23.241Z,100661.53
2019-03-01T00:53:25.956Z,100665.28
2019-03-01T00:58:28.673Z,100657.70
2019-03-01T01:03:31.653Z,100664.55
2019-03-01T01:08:34.424Z,100656.67
2019-03-01T01:13:37.154Z,100647.88
2019-03-01T01:18:39.952Z,100642.83
2019-03-01T01:23:42.659Z,100639.92
2019-03-01T01:28:45.353Z,100636.25
2019-03-01T01:33:48.111Z,100632.31
2019-03-01T01:38:50.812Z,100626.94
2019-03-01T01:43:53.538Z,100630.75
2019-03-01T01:48:56.245Z,100625.78
2019-03-01T01:53:58.975Z,100627.09
2019-03-01T01:59:01.661Z,100612.01
2019-03-01T02:04:04.370Z,100621.03
2019-03-01T02:09:20.303Z,100624.03
2019-03-01T02:14:23.191Z,100619.56
2019-03-01T02:19:26.023Z,100610.45
2019-03-01T02:24:28.724Z,100607.34
2019-03-01T02:29:31.454Z,100599.48
2019-03-01T02:34:34.220Z,100597.02
2019-03-01T02:39:36.942Z,100593.66
2019-03-01T02:44:39.711Z,100587.39
2019-03-01T02:49:42.411Z,100580.77
2019-03-01T02:54:45.127Z,100585.63
2019-03-01T02:59:47.842Z,100584.26
2019-03-01T03:04:50.580Z,100575.38
2019-03-01T03:09:53.386Z,100570.11
2019-03-01T03:14:56.131Z,100565.38
2019-03-01T03:19:58.842Z,100563.47
2019-03-01T03:25:01.550Z,100558.73
2019-03-01T03:30:05.994Z,100562.60
2019-03-01T03:35:08.745Z,100568.58
2019-03-01T03:40:11.537Z,100566.59
2019-03-01T03:45:14.531Z,100567.46
2019-03-01T03:50:17.320Z,100557.23
2019-03-01T03:55:20.059Z,100565.03
2019-03-01T04:00:22.872Z,100556.69
2019-03-01T04:05:25.563Z,100559.12
2019-03-01T04:10:28.274Z,100553.59
2019-03-01T04:15:31.375Z,100558.16
2019-03-01T04:20:34.124Z,100551.55
2019-03-01T04:25:36.858Z,100542.69
2019-03-01T04:30:39.792Z,100563.33
2019-03-01T04:35:42.528Z,100556.66
2019-03-01T04:40:45.255Z,100548.19
2019-03-01T04:45:47.984Z,100549.85
2019-03-01T04:50:50.706Z,100511.00
2019-03-01T04:55:53.479Z,100540.45
2019-03-01T05:00:56.709Z,100541.47
2019-03-01T05:05:59.426Z,100539.27
2019-03-01T05:11:02.207Z,100533.93
2019-03-01T05:26:39.587Z,100531.95
2019-03-01T05:31:42.328Z,100537.63
2019-03-01T05:36:45.066Z,100539.17
2019-03-01T05:41:47.801Z,100547.34
2019-03-01T05:46:50.551Z,100540.35
2019-03-01T05:51:53.261Z,100549.33
2019-03-01T05:56:55.995Z,100544.09
2019-03-01T06:03:01.267Z,100555.31
2019-03-01T06:08:48.000Z,100556.05
2019-03-01T06:14:15.430Z,100567.67
2019-03-01T06:19:49.453Z,100562.02
2019-03-01T06:25:46.169Z,100557.01
2019-03-01T06:32:05.661Z,100562.53
2019-03-01T06:43:35.280Z,100580.20
2019-03-01T06:48:46.699Z,100570.20
2019-03-01T06:53:49.408Z,100575.92
2019-03-01T06:58:58.786Z,100576.09
2019-03-01T07:04:06.953Z,100583.63
2019-03-01T07:09:09.654Z,100585.80
2019-03-01T07:14:12.369Z,100586.41
2019-03-01T07:19:15.064Z,100589.38
2019-03-01T07:24:17.823Z,100593.98
2019-03-01T07:29:20.576Z,100599.38
2019-03-01T07:34:23.309Z,100607.77
2019-03-01T07:39:26.020Z,100612.14
2019-03-01T07:44:28.763Z,100619.43
2019-03-01T07:49:31.478Z,100628.31
2019-03-01T07:54:34.203Z,100636.25
2019-03-01T07:59:38.096Z,100643.83
2019-03-01T08:04:41.539Z,100646.83
2019-03-01T08:09:44.744Z,100651.50
2019-03-01T08:14:48.486Z,100652.84
2019-03-01T08:19:54.753Z,100667.37
2019-03-01T08:24:55.813Z,100668.84
2019-03-01T08:29:58.513Z,100673.95
2019-03-01T08:35:01.257Z,100683.38
2019-03-01T08:40:05.962Z,100686.31
2019-03-01T08:45:11.288Z,100690.30
2019-03-01T08:50:15.080Z,100688.99
2019-03-01T08:55:18.127Z,100692.27
2019-03-01T09:00:26.801Z,100706.94
2019-03-01T09:05:28.729Z,100718.45
2019-03-01T09:10:32.719Z,100730.30
2019-03-01T09:15:36.856Z,100738.46
2019-03-01T09:20:39.750Z,100747.88
2019-03-01T09:25:44.681Z,100749.50
2019-03-01T09:30:47.080Z,100754.34
2019-03-01T09:36:14.506Z,100760.61
2019-03-01T09:41:16.404Z,100770.09
2019-03-01T09:46:20.948Z,100773.24
2019-03-01T09:51:23.725Z,100785.23
2019-03-01T09:56:26.469Z,100777.92
2019-03-01T10:01:29.183Z,100797.09
2019-03-01T10:06:38.092Z,100802.75
2019-03-01T10:11:36.551Z,100809.17
2019-03-01T10:16:39.446Z,100815.91
2019-03-01T10:21:42.151Z,100823.40
2019-03-01T10:26:44.862Z,100818.14
2019-03-01T10:31:47.586Z,100824.04
2019-03-01T10:36:50.395Z,100842.36
2019-03-01T10:41:53.107Z,100837.66
2019-03-01T10:46:55.822Z,100847.89
2019-03-01T10:51:58.633Z,100853.65
2019-03-01T10:57:01.364Z,100861.00
2019-03-01T11:02:04.194Z,100868.53
2019-03-01T11:07:06.909Z,100868.55
2019-03-01T11:12:10.443Z,100872.36
2019-03-01T11:17:13.146Z,100887.02
2019-03-01T11:22:15.861Z,100883.63
2019-03-01T11:27:18.779Z,100893.14
2019-03-01T11:32:21.518Z,100898.97
2019-03-01T11:37:24.217Z,100897.16
2019-03-01T11:42:26.938Z,100892.45
2019-03-01T11:47:29.645Z,100899.48
2019-03-01T11:52:32.359Z,100913.12
2019-03-01T11:57:35.108Z,100917.61
2019-03-01T12:02:37.865Z,100931.84
2019-03-01T12:07:40.560Z,100935.02
2019-03-01T12:12:43.276Z,100952.54
2019-03-01T12:17:45.981Z,100954.84
2019-03-01T12:22:48.704Z,100966.34
2019-03-01T12:27:51.435Z,100972.90
2019-03-01T12:32:54.181Z,100974.97
2019-03-01T12:37:56.902Z,100979.83
2019-03-01T12:42:59.658Z,100988.59
2019-03-01T12:48:02.409Z,100986.34
2019-03-01T12:53:05.156Z,100981.56
2019-03-01T12:58:07.883Z,100978.85
2019-03-01T13:03:10.621Z,100983.83
2019-03-01T13:08:15.830Z,100990.47
2019-03-01T13:13:18.007Z,100999.59
2019-03-01T13:18:20.743Z,101010.63
2019-03-01T13:23:23.461Z,101008.73
2019-03-01T13:28:26.205Z,101013.92
2019-03-01T13:33:28.963Z,101009.28
2019-03-01T13:38:33.995Z,101021.28
2019-03-01T13:43:36.306Z,101029.94
2019-03-01T13:48:39.100Z,101024.83
2019-03-01T13:53:49.026Z,101025.02
2019-03-01T13:58:47.893Z,101028.31
2019-03-01T14:03:51.164Z,101034.33
2019-03-01T14:08:53.922Z,101035.57
2019-03-01T14:13:56.694Z,101027.70
2019-03-01T14:19:00.389Z,101028.17
2019-03-01T14:24:03.209Z,101025.47
2019-03-01T14:29:05.941Z,101032.30
2019-03-01T14:34:11.591Z,101030.73
2019-03-01T14:39:16.386Z,101035.13
2019-03-01T14:44:19.110Z,101035.52
2019-03-01T14:49:22.747Z,101030.20
2019-03-01T14:54:25.542Z,101032.90
2019-03-01T14:59:42.588Z,101036.86
2019-03-01T15:04:45.300Z,101043.63
2019-03-01T15:09:48.074Z,101044.68
2019-03-01T15:14:51.166Z,101031.86
2019-03-01T15:19:53.877Z,101033.03
2019-03-01T15:24:56.596Z,101032.41
2019-03-01T15:29:59.330Z,101041.44
2019-03-01T15:35:03.916Z,101047.92
2019-03-01T15:40:07.424Z,101042.22
2019-03-01T15:45:10.335Z,101047.61
2019-03-01T15:50:13.316Z,101047.95
2019-03-01T15:55:16.741Z,101046.34
2019-03-01T16:00:21.956Z,101054.52
2019-03-01T16:05:24.733Z,101068.71
2019-03-01T16:10:27.437Z,101065.05
2019-03-01T16:15:30.168Z,101083.88
2019-03-01T16:20:34.971Z,101071.89
2019-03-01T16:25:37.693Z,101095.70
2019-03-01T16:30:40.400Z,101087.59
2019-03-01T16:35:43.111Z,101097.25
2019-03-01T16:40:45.808Z,101111.55
2019-03-01T16:45:48.529Z,101124.22
2019-03-01T16:50:51.566Z,101118.60
2019-03-01T16:55:54.782Z,101123.03
2019-03-01T17:00:57.584Z,101132.41
2019-03-01T17:06:00.271Z,101135.25
2019-03-01T17:11:05.690Z,101131.88
2019-03-01T17:16:09.253Z,101132.86
2019-03-01T17:21:12.565Z,101136.89
2019-03-01T17:26:16.945Z,101152.66
2019-03-01T17:31:19.669Z,101156.18
2019-03-01T17:36:22.375Z,101169.84
2019-03-01T17:41:25.098Z,101168.97
2019-03-01T17:46:29.782Z,101169.58
2019-03-01T17:51:32.424Z,101170.58
